Skip to content
You are here: Gozo Weather
Gozo Weather Station for the very latest live weather conditions from Gozo and Malta
 
 TIME   TEMPERATURE   WINDSPEED   DIRECTION   HUMIDITY   BAROMETER   RAINFALL 
3:56 21.3°C (70.3°F) 1.9 kmh (1.2 mph) WSW 51% 1014.0hPa (29.94 inHg) 0.0mm (0.00 in.)
2:56 21.4°C (70.5 °F) 9.3 kmh (5.8 mph) W 49% 1015.0hPa (29.97 inHg) 0.0mm (0.00 in.)
1:56 21.5°C (70.7 °F) 20.4 kmh (12.7 mph) WSW 48% 1015.0hPa (29.97 inHg) 0.0mm (0.00 in.)
12:56 21.6°C (70.9 °F) 22.2 kmh (13.8 mph) WSW 48% 1015.0hPa (29.97 inHg) 0.0mm (0.00 in.)
11:56 21.8°C (71.2 °F) 18.5 kmh (11.5 mph) W 45% 1015.0hPa (29.97 inHg) 0.0mm (0.00 in.)
10:49 22.2°C (72.0 °F) 22.2 kmh (13.8 mph) WSW 42% 1015.0hPa (29.97 inHg) 0.0mm (0.00 in.)
9:49 24.0°C (75.2 °F) 22.2 kmh (13.8 mph) WSW 35% 1015.0hPa (29.97 inHg) 0.0mm (0.00 in.)
8:49 24.5°C (76.1 °F) 18.5 kmh (11.5 mph) WSW 36% 1015.0hPa (29.97 inHg) 0.0mm (0.00 in.)
7:49 25.1°C (77.2 °F) 14.8 kmh (9.2 mph) WSW 41% 1015.0hPa (29.97 inHg) 0.0mm (0.00 in.)
6:49 25.8°C (78.4 °F) 14.8 kmh (9.2 mph) WSW 41% 1014.0hPa (29.94 inHg) 0.0mm (0.00 in.)
5:49 26.2°C (79.2 °F) 22.2 kmh (13.8 mph) WSW 40% 1015.0hPa (29.97 inHg) 0.0mm (0.00 in.)
4:49 26.1°C (79.0 °F) 18.5 kmh (11.5 mph) WSW 48% 1015.0hPa (29.97 inHg) 0.0mm (0.00 in.)
3:49 24.1°C (75.4 °F) 22.2 kmh (13.8 mph) WSW 52% 1016.0hPa (30.00 inHg) 0.0mm (0.00 in.)
2:49 26.5°C (79.7 °F) 24.1 kmh (15.0 mph) SW 49% 1016.0hPa (30.00 inHg) 0.0mm (0.00 in.)
1:49 26.1°C (79.0 °F) 20.4 kmh (12.7 mph) SW 49% 1017.0hPa (30.03 inHg) 0.0mm (0.00 in.)
12:49 25.8°C (78.4 °F) 16.7 kmh (10.4 mph) SSW 39% 1016.0hPa (30.00 inHg) 0.0mm (0.00 in.)
11:49 25.2°C (77.4 °F) 20.4 kmh (12.7 mph) SW 43% 1016.0hPa (30.00 inHg) 0.0mm (0.00 in.)
10:49 25.2°C (77.4 °F) 24.1 kmh (15.0 mph) WSW 40% 1015.0hPa (29.97 inHg) 0.0mm (0.00 in.)
9:49 24.6°C (76.3 °F) 16.7 kmh (10.4 mph) WSW 41% 1016.0hPa (30.00 inHg) 0.0mm (0.00 in.)
8:43 23.4°C (74.1 °F) 13.0 kmh (8.1 mph) WSW 51% 1016.0hPa (30.00 inHg) 0.0mm (0.00 in.)
7:43 21.6°C (70.9 °F) 16.7 kmh (10.4 mph) WSW 51% 1016.0hPa (30.00 inHg) 0.0mm (0.00 in.)
6:43 20.6°C (69.1 °F) 16.7 kmh (10.4 mph) WSW 43% 1015.0hPa (29.97 inHg) 0.0mm (0.00 in.)
5:43 20.4°C (68.7 °F) 18.5 kmh (11.5 mph) WSW 36% 1015.0hPa (29.97 inHg) 0.0mm (0.00 in.)
4:43 20.2°C (68.4 °F) 11.1 kmh (6.9 mph) WSW 43% 1014.0hPa (29.94 inHg) 0.0mm (0.00 in.)

You need the latest version of Flash Player to view some of our content.


Why not download and install the latest version now?
It will only take you a moment and will ensure that you can view all the latest flash designed websites.

Translate this page

Animated Satellite

Click per aprire http://www.gozo.ws/Animation.php
copyright 2016 EUMETSAT

European Lightning Activity


Please click image for full size

Sponsored Links